createdAt,value
2022-08-05T00:01:20.828Z,80.34
2022-08-05T00:04:34.230Z,80.52
2022-08-05T00:07:59.787Z,80.81
2022-08-05T00:11:20.807Z,80.99
2022-08-05T00:14:37.431Z,80.69
2022-08-05T00:17:44.017Z,81.48
2022-08-05T00:20:54.355Z,81.31
2022-08-05T00:24:10.018Z,81.08
2022-08-05T00:27:17.599Z,81.30
2022-08-05T00:30:29.317Z,81.42
2022-08-05T00:34:54.217Z,81.40
2022-08-05T00:37:11.542Z,81.73
2022-08-05T00:40:27.018Z,81.76
2022-08-05T00:43:47.174Z,82.65
2022-08-05T00:47:01.891Z,82.53
2022-08-05T00:50:10.660Z,82.27
2022-08-05T00:53:45.121Z,82.33
2022-08-05T00:56:51.422Z,81.87
2022-08-05T00:59:57.718Z,82.62
2022-08-05T01:03:22.255Z,82.87
2022-08-05T01:06:32.567Z,82.94
2022-08-05T01:09:38.970Z,83.68
2022-08-05T01:13:00.431Z,84.13
2022-08-05T01:16:22.998Z,83.22
2022-08-05T01:20:00.935Z,83.82
2022-08-05T01:23:24.831Z,83.15
2022-08-05T01:27:17.875Z,83.33
2022-08-05T01:30:34.173Z,82.93
2022-08-05T01:33:53.478Z,83.41
2022-08-05T01:37:04.458Z,83.45
2022-08-05T01:40:11.450Z,83.16
2022-08-05T01:43:22.415Z,83.84
2022-08-05T01:46:42.467Z,83.55
2022-08-05T01:50:02.138Z,83.27
2022-08-05T01:53:14.204Z,83.40
2022-08-05T01:58:11.651Z,83.65
2022-08-05T02:00:12.420Z,84.17
2022-08-05T02:03:35.649Z,84.30
2022-08-05T02:06:42.135Z,83.94
2022-08-05T02:09:51.985Z,84.19
2022-08-05T02:13:15.923Z,84.53
2022-08-05T02:16:44.069Z,84.72
2022-08-05T02:19:55.402Z,84.38
2022-08-05T02:23:10.227Z,84.36
2022-08-05T02:26:22.233Z,84.40
2022-08-05T02:29:59.914Z,84.70
2022-08-05T02:32:57.668Z,85.06
2022-08-05T02:36:04.833Z,84.89
2022-08-05T02:39:11.636Z,84.94
2022-08-05T02:42:25.667Z,84.81
2022-08-05T02:45:51.866Z,84.89
2022-08-05T02:49:03.631Z,85.00
2022-08-05T02:52:29.692Z,85.19
2022-08-05T02:55:54.470Z,85.43
2022-08-05T02:59:05.855Z,85.27
2022-08-05T03:02:13.614Z,85.05
2022-08-05T03:05:21.887Z,85.79
2022-08-05T03:08:48.945Z,85.84
2022-08-05T03:11:58.468Z,86.32
2022-08-05T03:15:07.083Z,86.64
2022-08-05T03:18:17.317Z,86.73
2022-08-05T03:21:23.239Z,85.92
2022-08-05T03:24:35.018Z,85.86
2022-08-05T03:27:59.401Z,86.15
2022-08-05T03:31:07.315Z,86.73
2022-08-05T03:34:13.239Z,86.21
2022-08-05T03:37:21.778Z,86.50
2022-08-05T03:40:32.364Z,86.54
2022-08-05T03:44:10.016Z,86.37
2022-08-05T03:47:06.577Z,86.32
2022-08-05T03:50:12.676Z,86.37
2022-08-05T03:55:49.776Z,85.71
2022-08-05T03:57:16.130Z,86.65
2022-08-05T04:00:27.362Z,86.04
2022-08-05T04:03:38.652Z,86.55
2022-08-05T04:06:48.027Z,85.68
2022-08-05T04:09:57.914Z,85.91
2022-08-05T04:13:09.202Z,85.65
2022-08-05T04:16:15.411Z,85.79
2022-08-05T04:19:31.152Z,86.45
2022-08-05T04:22:36.833Z,85.56
2022-08-05T04:26:00.290Z,85.12
2022-08-05T04:29:08.427Z,85.54
2022-08-05T04:32:20.003Z,85.56
2022-08-05T04:36:16.831Z,85.15
2022-08-05T04:39:07.650Z,85.78
2022-08-05T04:42:13.690Z,85.25
2022-08-05T04:45:31.018Z,84.29
2022-08-05T04:48:47.288Z,84.88
2022-08-05T04:52:00.544Z,83.86
2022-08-05T04:55:14.883Z,83.37
2022-08-05T04:58:21.681Z,83.52
2022-08-05T05:02:08.117Z,83.39
2022-08-05T05:05:02.753Z,83.04
2022-08-05T05:08:14.472Z,83.21
2022-08-05T05:11:41.629Z,81.81
2022-08-05T05:15:04.111Z,80.46
2022-08-05T05:18:12.375Z,81.24
2022-08-05T05:21:19.482Z,79.16
2022-08-05T05:24:57.012Z,76.24
2022-08-05T05:28:12.196Z,74.75
2022-08-05T05:31:19.274Z,72.55
2022-08-05T05:34:29.355Z,71.12
2022-08-05T05:37:59.029Z,69.21
2022-08-05T05:41:07.619Z,67.10
2022-08-05T05:44:35.806Z,66.92
2022-08-05T05:48:07.028Z,65.33
2022-08-05T05:51:15.758Z,63.35
2022-08-05T05:54:49.968Z,62.92
2022-08-05T05:57:53.242Z,61.47
2022-08-05T06:01:12.384Z,59.06
2022-08-05T06:04:22.413Z,58.34
2022-08-05T06:07:41.730Z,57.80
2022-08-05T06:10:52.892Z,54.59
2022-08-05T06:14:00.379Z,56.05
2022-08-05T06:17:22.597Z,54.05
2022-08-05T06:20:32.238Z,52.17
2022-08-05T06:23:44.034Z,51.71
2022-08-05T06:26:53.535Z,51.03
2022-08-05T06:30:17.863Z,52.72
2022-08-05T06:33:52.251Z,53.18
2022-08-05T06:36:58.128Z,51.74
2022-08-05T06:40:05.710Z,49.04
2022-08-05T06:43:57.957Z,48.71
2022-08-05T06:46:42.536Z,48.74
2022-08-05T06:50:00.591Z,48.82
2022-08-05T06:53:19.573Z,47.99
2022-08-05T06:56:34.871Z,48.07
2022-08-05T06:59:48.504Z,46.02
2022-08-05T07:03:05.097Z,45.68
2022-08-05T07:06:20.686Z,42.92
2022-08-05T07:09:32.431Z,45.47
2022-08-05T07:13:02.970Z,42.10
2022-08-05T07:18:01.493Z,45.02
2022-08-05T07:20:32.959Z,44.37
2022-08-05T07:23:40.603Z,42.27
2022-08-05T07:27:00.490Z,41.19
2022-08-05T07:30:27.578Z,43.01
2022-08-05T07:33:40.953Z,43.17
2022-08-05T07:36:47.402Z,42.59
2022-08-05T07:40:04.680Z,42.81
2022-08-05T07:43:24.642Z,42.11
2022-08-05T07:46:33.656Z,42.11
2022-08-05T07:49:54.669Z,39.82
2022-08-05T07:53:06.532Z,41.67
2022-08-05T07:57:02.642Z,39.70
2022-08-05T07:59:46.975Z,39.02
2022-08-05T08:03:15.233Z,39.48
2022-08-05T08:06:28.174Z,38.57
2022-08-05T08:09:34.863Z,38.26
2022-08-05T08:12:49.440Z,38.72
2022-08-05T08:16:50.519Z,38.82
2022-08-05T08:20:23.382Z,39.07
2022-08-05T08:23:00.091Z,38.49
2022-08-05T08:26:10.615Z,37.42
2022-08-05T08:29:45.585Z,36.43
2022-08-05T08:32:47.237Z,36.75
2022-08-05T08:36:18.526Z,36.92
2022-08-05T08:39:26.582Z,35.46
2022-08-05T08:42:50.423Z,33.44
2022-08-05T08:46:02.916Z,35.01
2022-08-05T08:50:07.834Z,30.87
2022-08-05T08:52:39.757Z,32.22
2022-08-05T08:56:04.357Z,31.57
2022-08-05T08:59:19.506Z,30.73
2022-08-05T09:02:27.186Z,31.04
2022-08-05T09:05:38.269Z,30.75
2022-08-05T09:09:04.694Z,29.92
2022-08-05T09:12:20.816Z,30.59
2022-08-05T09:15:37.028Z,32.07
2022-08-05T09:18:50.047Z,31.76
2022-08-05T09:22:28.721Z,33.15
2022-08-05T09:25:59.886Z,31.96
2022-08-05T09:29:06.596Z,32.15
2022-08-05T09:32:40.727Z,29.36
2022-08-05T09:36:11.758Z,30.20
2022-08-05T09:39:39.306Z,26.47
2022-08-05T09:42:54.198Z,26.60
2022-08-05T09:46:35.200Z,25.28
2022-08-05T09:50:00.951Z,24.30
2022-08-05T09:53:13.029Z,27.30
2022-08-05T09:56:31.932Z,24.99
2022-08-05T09:59:39.089Z,23.59
2022-08-05T10:02:51.134Z,24.05
2022-08-05T10:06:16.083Z,22.86
2022-08-05T10:09:27.428Z,22.49
2022-08-05T10:12:49.160Z,22.75
2022-08-05T10:15:58.861Z,21.59
2022-08-05T10:19:09.303Z,22.38
2022-08-05T10:22:29.965Z,23.10
2022-08-05T10:25:45.659Z,21.65
2022-08-05T10:28:51.534Z,21.43
2022-08-05T10:32:54.813Z,21.73
2022-08-05T10:35:33.754Z,20.68
2022-08-05T10:38:58.485Z,20.92
2022-08-05T10:42:14.120Z,20.35
2022-08-05T10:45:42.137Z,20.38
2022-08-05T10:49:09.804Z,19.93
2022-08-05T10:52:58.976Z,20.21
2022-08-05T10:56:21.090Z,20.41
2022-08-05T11:00:02.606Z,20.20
2022-08-05T11:03:24.811Z,19.45
2022-08-05T11:07:11.919Z,19.13
2022-08-05T11:10:31.027Z,19.28
2022-08-05T11:13:57.778Z,19.24
2022-08-05T11:17:59.891Z,18.81
2022-08-05T11:20:59.824Z,17.88
2022-08-05T11:24:30.730Z,19.16
2022-08-05T11:27:50.991Z,17.72
2022-08-05T11:31:19.543Z,18.10
2022-08-05T11:34:50.944Z,17.76
2022-08-05T11:38:30.851Z,18.71
2022-08-05T11:41:54.842Z,18.96
2022-08-05T11:45:05.360Z,17.86
2022-08-05T11:48:12.062Z,17.92
2022-08-05T11:51:43.987Z,18.09
2022-08-05T11:54:54.733Z,17.63
2022-08-05T11:58:10.223Z,18.48
2022-08-05T12:01:41.537Z,17.73
2022-08-05T12:04:59.540Z,18.56
2022-08-05T12:08:11.731Z,17.35
2022-08-05T12:11:40.280Z,16.89
2022-08-05T12:14:49.646Z,17.01
2022-08-05T12:18:02.588Z,16.64
2022-08-05T12:21:17.499Z,17.37
2022-08-05T12:24:24.661Z,17.48
2022-08-05T12:27:34.737Z,16.08
2022-08-05T12:31:07.676Z,16.39
2022-08-05T12:34:25.942Z,16.88
2022-08-05T12:37:33.876Z,16.86
2022-08-05T12:40:44.199Z,16.84
2022-08-05T12:44:00.935Z,16.25
2022-08-05T12:47:12.418Z,16.69
2022-08-05T12:50:20.078Z,16.10
2022-08-05T12:53:38.770Z,15.99
2022-08-05T12:57:09.287Z,15.98
2022-08-05T13:02:00.325Z,16.42
2022-08-05T13:03:53.958Z,15.66
2022-08-05T13:07:02.801Z,16.12
2022-08-05T13:10:19.665Z,15.98
2022-08-05T13:14:05.965Z,15.88
2022-08-05T13:17:41.666Z,16.55
2022-08-05T13:20:52.312Z,15.73
2022-08-05T13:23:59.431Z,15.90
2022-08-05T13:27:05.669Z,15.96
2022-08-05T13:30:34.220Z,16.25
2022-08-05T13:34:21.465Z,16.37
2022-08-05T13:37:27.171Z,16.60
2022-08-05T13:40:51.608Z,16.83
2022-08-05T13:44:02.047Z,16.53
2022-08-05T13:47:09.348Z,16.27
2022-08-05T13:50:16.994Z,16.60
2022-08-05T13:53:24.194Z,16.05
2022-08-05T13:56:50.445Z,15.56
2022-08-05T14:00:02.128Z,16.06
2022-08-05T14:03:12.530Z,16.10
2022-08-05T14:06:38.943Z,14.99
2022-08-05T14:09:55.438Z,15.86
2022-08-05T14:13:02.070Z,16.41
2022-08-05T14:16:11.318Z,15.95
2022-08-05T14:19:19.671Z,16.23
2022-08-05T14:22:30.339Z,15.18
2022-08-05T14:25:46.216Z,14.96
2022-08-05T14:28:53.549Z,16.14
2022-08-05T14:32:12.365Z,16.26
2022-08-05T14:35:36.988Z,15.62
2022-08-05T14:38:53.616Z,15.43
2022-08-05T14:42:20.787Z,15.67
2022-08-05T14:45:31.684Z,15.72
2022-08-05T14:48:38.597Z,15.49
2022-08-05T14:51:45.978Z,16.04
2022-08-05T14:54:54.198Z,15.78
2022-08-05T14:58:01.038Z,15.78
2022-08-05T15:01:47.298Z,14.99
2022-08-05T15:04:52.117Z,15.64
2022-08-05T15:08:10.676Z,16.28
2022-08-05T15:11:20.712Z,15.80
2022-08-05T15:14:50.676Z,15.34
2022-08-05T15:17:57.650Z,15.70
2022-08-05T15:21:11.296Z,16.08
2022-08-05T15:24:19.237Z,15.74
2022-08-05T15:27:32.022Z,15.89
2022-08-05T15:30:45.757Z,16.30
2022-08-05T15:34:18.957Z,16.29
2022-08-05T15:38:34.272Z,16.72
2022-08-05T15:41:04.466Z,15.69
2022-08-05T15:44:23.878Z,15.37
2022-08-05T15:47:57.537Z,15.79
2022-08-05T15:51:06.496Z,16.42
2022-08-05T15:54:15.273Z,16.51
2022-08-05T15:57:23.553Z,16.47
2022-08-05T16:00:51.037Z,16.70
2022-08-05T16:03:58.570Z,16.43
2022-08-05T16:07:10.988Z,17.09
2022-08-05T16:10:23.090Z,17.68
2022-08-05T16:13:35.091Z,19.05
2022-08-05T16:16:44.376Z,19.78
2022-08-05T16:20:05.296Z,20.47
2022-08-05T16:23:18.501Z,21.47
2022-08-05T16:26:27.839Z,22.47
2022-08-05T16:29:37.127Z,22.89
2022-08-05T16:32:46.777Z,23.30
2022-08-05T16:35:56.216Z,24.18
2022-08-05T16:39:04.546Z,24.72
2022-08-05T16:42:27.859Z,25.46
2022-08-05T16:46:07.236Z,25.85
2022-08-05T16:49:07.036Z,26.69
2022-08-05T16:52:14.258Z,27.27
2022-08-05T16:55:21.778Z,28.05
2022-08-05T16:58:32.997Z,28.19
2022-08-05T17:01:54.541Z,28.60
2022-08-05T17:05:05.555Z,29.16
2022-08-05T17:08:15.875Z,30.20
2022-08-05T17:11:48.710Z,31.20
2022-08-05T17:15:01.141Z,32.06
2022-08-05T17:18:10.556Z,32.75
2022-08-05T17:21:26.099Z,33.56
2022-08-05T17:24:56.754Z,34.17
2022-08-05T17:28:06.393Z,35.18
2022-08-05T17:31:24.140Z,36.33
2022-08-05T17:34:44.405Z,37.05
2022-08-05T17:37:53.397Z,37.66
2022-08-05T17:41:22.781Z,38.67
2022-08-05T17:44:39.637Z,39.11
2022-08-05T17:47:58.159Z,40.51
2022-08-05T17:51:08.993Z,41.39
2022-08-05T17:54:15.445Z,42.94
2022-08-05T17:57:29.538Z,43.23
2022-08-05T18:00:40.761Z,44.34
2022-08-05T18:04:03.765Z,45.02
2022-08-05T18:07:12.554Z,45.99
2022-08-05T18:10:26.099Z,46.41
2022-08-05T18:13:36.891Z,47.21
2022-08-05T18:16:54.098Z,47.78
2022-08-05T18:20:04.038Z,48.64
2022-08-05T18:23:12.436Z,49.14
2022-08-05T18:26:19.059Z,49.51
2022-08-05T18:29:40.293Z,49.83
2022-08-05T18:32:53.611Z,50.92
2022-08-05T18:36:19.050Z,51.29
2022-08-05T18:40:30.885Z,52.39
2022-08-05T18:42:59.033Z,52.23
2022-08-05T18:46:09.789Z,52.93
2022-08-05T18:49:44.537Z,53.51
2022-08-05T18:53:15.058Z,53.71
2022-08-05T18:56:35.615Z,54.08
2022-08-05T19:00:03.011Z,54.79
2022-08-05T19:03:11.051Z,54.87
2022-08-05T19:06:21.931Z,55.49
2022-08-05T19:09:44.753Z,56.16
2022-08-05T19:12:52.577Z,56.69
2022-08-05T19:16:03.786Z,57.59
2022-08-05T19:19:10.409Z,58.37
2022-08-05T19:22:27.545Z,58.85
2022-08-05T19:25:43.371Z,59.04
2022-08-05T19:28:50.525Z,59.25
2022-08-05T19:31:57.513Z,59.49
2022-08-05T19:35:06.377Z,59.79
2022-08-05T19:38:13.179Z,60.21
2022-08-05T19:41:22.159Z,60.23
2022-08-05T19:44:51.376Z,60.26
2022-08-05T19:47:57.617Z,60.39
2022-08-05T19:51:04.182Z,60.75
2022-08-05T19:54:21.648Z,61.06
2022-08-05T19:57:49.285Z,61.39
2022-08-05T20:01:05.386Z,61.97
2022-08-05T20:04:12.593Z,62.56
2022-08-05T20:07:46.514Z,62.69
2022-08-05T20:10:49.807Z,63.10
2022-08-05T20:13:58.924Z,63.32
2022-08-05T20:17:23.423Z,64.28
2022-08-05T20:20:30.147Z,63.72
2022-08-05T20:23:51.370Z,64.42
2022-08-05T20:27:00.803Z,64.42
2022-08-05T20:30:10.518Z,64.31
2022-08-05T20:33:17.396Z,64.66
2022-08-05T20:36:28.957Z,65.08
2022-08-05T20:39:35.674Z,65.39
2022-08-05T20:42:43.574Z,65.84
2022-08-05T20:45:56.900Z,65.93
2022-08-05T20:49:08.194Z,66.28
2022-08-05T20:52:14.627Z,66.49
2022-08-05T20:56:07.301Z,66.48
2022-08-05T20:58:48.821Z,66.67
2022-08-05T21:01:58.589Z,66.96
2022-08-05T21:05:06.489Z,66.79
2022-08-05T21:08:15.558Z,67.14
2022-08-05T21:12:09.643Z,67.09
2022-08-05T21:14:50.851Z,67.38
2022-08-05T21:17:57.494Z,67.44
2022-08-05T21:21:04.053Z,68.30
2022-08-05T21:24:12.884Z,69.07
2022-08-05T21:27:20.618Z,68.96
2022-08-05T21:30:32.716Z,68.80
2022-08-05T21:33:40.157Z,69.33
2022-08-05T21:36:46.659Z,69.57
2022-08-05T21:39:55.327Z,69.72
2022-08-05T21:43:01.502Z,70.18
2022-08-05T21:46:12.087Z,70.21
2022-08-05T21:49:48.023Z,70.47
2022-08-05T21:52:48.545Z,71.40
2022-08-05T21:56:05.598Z,70.82
2022-08-05T21:59:24.392Z,71.60
2022-08-05T22:02:32.598Z,71.49
2022-08-05T22:05:49.043Z,71.82
2022-08-05T22:08:55.838Z,71.88
2022-08-05T22:12:03.508Z,72.12
2022-08-05T22:16:00.529Z,72.25
2022-08-05T22:18:49.171Z,72.63
2022-08-05T22:21:55.624Z,72.62
2022-08-05T22:25:27.845Z,73.19
2022-08-05T22:28:54.253Z,73.24
2022-08-05T22:32:03.328Z,73.34
2022-08-05T22:35:10.074Z,72.98
2022-08-05T22:38:16.353Z,73.28
2022-08-05T22:42:04.807Z,73.47
2022-08-05T22:44:56.401Z,73.87
2022-08-05T22:48:03.018Z,74.03
2022-08-05T22:51:22.499Z,75.19
2022-08-05T22:54:30.146Z,74.99
2022-08-05T22:57:36.928Z,74.63
2022-08-05T23:00:42.797Z,74.93
2022-08-05T23:03:57.906Z,74.80
2022-08-05T23:07:07.001Z,74.75
2022-08-05T23:10:13.589Z,75.06
2022-08-05T23:13:19.981Z,75.45
2022-08-05T23:16:53.567Z,75.76
2022-08-05T23:20:00.859Z,76.60
2022-08-05T23:23:08.951Z,76.73
2022-08-05T23:26:15.077Z,76.43
2022-08-05T23:29:21.568Z,76.39
2022-08-05T23:32:28.192Z,77.17
2022-08-05T23:35:34.767Z,76.77
2022-08-05T23:38:41.088Z,77.38
2022-08-05T23:41:51.326Z,76.96
2022-08-05T23:44:58.131Z,76.92
2022-08-05T23:48:05.971Z,76.79
2022-08-05T23:51:15.295Z,77.17
2022-08-05T23:54:30.341Z,77.12
2022-08-05T23:57:40.704Z,77.03
